sensor_id;sensor_type;location;lat;lon;timestamp;temperature;humidity
52107;DHT22;38105;52.968;5.974;2023-07-31T00:00:31;16.60;99.90
52107;DHT22;38105;52.968;5.974;2023-07-31T00:02:57;16.30;99.90
52107;DHT22;38105;52.968;5.974;2023-07-31T00:05:22;16.70;99.90
52107;DHT22;38105;52.968;5.974;2023-07-31T00:07:48;16.50;99.90
52107;DHT22;38105;52.968;5.974;2023-07-31T00:10:13;16.70;99.90
52107;DHT22;38105;52.968;5.974;2023-07-31T00:12:40;16.40;99.90
52107;DHT22;38105;52.968;5.974;2023-07-31T00:15:07;16.70;99.90
52107;DHT22;38105;52.968;5.974;2023-07-31T00:17:32;16.20;99.90
52107;DHT22;38105;52.968;5.974;2023-07-31T00:19:58;16.60;99.90
52107;DHT22;38105;52.968;5.974;2023-07-31T00:22:23;16.30;99.90
52107;DHT22;38105;52.968;5.974;2023-07-31T00:24:49;16.60;99.90
52107;DHT22;38105;52.968;5.974;2023-07-31T00:27:15;16.70;99.90
52107;DHT22;38105;52.968;5.974;2023-07-31T00:29:40;16.50;99.90
52107;DHT22;38105;52.968;5.974;2023-07-31T00:32:06;16.20;99.90
52107;DHT22;38105;52.968;5.974;2023-07-31T00:34:31;16.30;99.90
52107;DHT22;38105;52.968;5.974;2023-07-31T00:36:57;16.40;99.90
52107;DHT22;38105;52.968;5.974;2023-07-31T00:39:22;16.40;99.90
52107;DHT22;38105;52.968;5.974;2023-07-31T00:41:48;16.20;99.90
52107;DHT22;38105;52.968;5.974;2023-07-31T00:44:14;16.70;99.90
52107;DHT22;38105;52.968;5.974;2023-07-31T00:46:39;16.20;99.90
52107;DHT22;38105;52.968;5.974;2023-07-31T00:49:05;16.20;99.90
52107;DHT22;38105;52.968;5.974;2023-07-31T00:51:31;16.50;99.90
52107;DHT22;38105;52.968;5.974;2023-07-31T00:53:56;16.20;99.90
52107;DHT22;38105;52.968;5.974;2023-07-31T00:56:23;16.40;99.90
52107;DHT22;38105;52.968;5.974;2023-07-31T00:58:49;16.60;99.90
52107;DHT22;38105;52.968;5.974;2023-07-31T01:01:15;16.50;99.90
52107;DHT22;38105;52.968;5.974;2023-07-31T01:03:40;16.80;99.90
52107;DHT22;38105;52.968;5.974;2023-07-31T01:06:17;16.90;99.90
52107;DHT22;38105;52.968;5.974;2023-07-31T01:09:27;16.50;99.90
52107;DHT22;38105;52.968;5.974;2023-07-31T01:11:43;16.40;99.90
52107;DHT22;38105;52.968;5.974;2023-07-31T01:14:10;16.80;99.90
52107;DHT22;38105;52.968;5.974;2023-07-31T01:16:35;16.90;99.90
52107;DHT22;38105;52.968;5.974;2023-07-31T01:19:01;16.50;99.90
52107;DHT22;38105;52.968;5.974;2023-07-31T01:21:37;16.50;99.90
52107;DHT22;38105;52.968;5.974;2023-07-31T01:24:15;16.80;99.90
52107;DHT22;38105;52.968;5.974;2023-07-31T01:26:45;16.40;99.90
52107;DHT22;38105;52.968;5.974;2023-07-31T01:31:57;16.30;99.90
52107;DHT22;38105;52.968;5.974;2023-07-31T01:34:26;16.90;99.90
52107;DHT22;38105;52.968;5.974;2023-07-31T01:36:52;16.90;99.90
52107;DHT22;38105;52.968;5.974;2023-07-31T01:39:19;16.30;99.90
52107;DHT22;38105;52.968;5.974;2023-07-31T01:41:45;16.80;99.90
52107;DHT22;38105;52.968;5.974;2023-07-31T01:44:11;16.50;99.90
52107;DHT22;38105;52.968;5.974;2023-07-31T01:46:36;16.70;99.90
52107;DHT22;38105;52.968;5.974;2023-07-31T01:49:02;16.80;99.90
52107;DHT22;38105;52.968;5.974;2023-07-31T01:51:28;16.50;99.90
52107;DHT22;38105;52.968;5.974;2023-07-31T01:53:54;16.60;99.90
52107;DHT22;38105;52.968;5.974;2023-07-31T01:56:19;16.30;99.90
52107;DHT22;38105;52.968;5.974;2023-07-31T01:58:45;16.40;99.90
52107;DHT22;38105;52.968;5.974;2023-07-31T02:01:10;16.70;99.90
52107;DHT22;38105;52.968;5.974;2023-07-31T02:03:36;16.20;99.90
52107;DHT22;38105;52.968;5.974;2023-07-31T02:06:01;16.50;99.90
52107;DHT22;38105;52.968;5.974;2023-07-31T02:08:27;16.30;99.90
52107;DHT22;38105;52.968;5.974;2023-07-31T02:10:53;16.80;99.90
52107;DHT22;38105;52.968;5.974;2023-07-31T02:13:19;16.40;99.90
52107;DHT22;38105;52.968;5.974;2023-07-31T02:15:45;16.90;99.90
52107;DHT22;38105;52.968;5.974;2023-07-31T02:18:10;16.30;99.90
52107;DHT22;38105;52.968;5.974;2023-07-31T02:20:36;16.70;99.90
52107;DHT22;38105;52.968;5.974;2023-07-31T02:23:01;16.90;99.90
52107;DHT22;38105;52.968;5.974;2023-07-31T02:25:27;16.40;99.90
52107;DHT22;38105;52.968;5.974;2023-07-31T02:27:53;16.80;99.90
52107;DHT22;38105;52.968;5.974;2023-07-31T02:30:18;16.20;99.90
52107;DHT22;38105;52.968;5.974;2023-07-31T02:32:44;16.70;99.90
52107;DHT22;38105;52.968;5.974;2023-07-31T02:35:09;16.80;99.90
52107;DHT22;38105;52.968;5.974;2023-07-31T02:37:35;16.80;99.90
52107;DHT22;38105;52.968;5.974;2023-07-31T02:40:01;16.30;99.90
52107;DHT22;38105;52.968;5.974;2023-07-31T02:42:26;16.50;99.90
52107;DHT22;38105;52.968;5.974;2023-07-31T02:44:52;16.60;99.90
52107;DHT22;38105;52.968;5.974;2023-07-31T02:47:21;16.40;99.90
52107;DHT22;38105;52.968;5.974;2023-07-31T02:49:47;16.70;99.90
52107;DHT22;38105;52.968;5.974;2023-07-31T02:52:12;16.30;99.90
52107;DHT22;38105;52.968;5.974;2023-07-31T02:54:38;16.50;99.90
52107;DHT22;38105;52.968;5.974;2023-07-31T02:57:03;16.10;99.90
52107;DHT22;38105;52.968;5.974;2023-07-31T02:59:29;16.40;99.90
52107;DHT22;38105;52.968;5.974;2023-07-31T03:01:55;16.40;99.90
52107;DHT22;38105;52.968;5.974;2023-07-31T03:04:20;16.00;99.90
52107;DHT22;38105;52.968;5.974;2023-07-31T03:06:46;16.00;99.90
52107;DHT22;38105;52.968;5.974;2023-07-31T03:09:12;16.00;99.90
52107;DHT22;38105;52.968;5.974;2023-07-31T03:11:37;16.20;99.90
52107;DHT22;38105;52.968;5.974;2023-07-31T03:14:03;16.30;99.90
52107;DHT22;38105;52.968;5.974;2023-07-31T03:16:28;16.20;99.90
52107;DHT22;38105;52.968;5.974;2023-07-31T03:18:54;16.40;99.90
52107;DHT22;38105;52.968;5.974;2023-07-31T03:21:20;16.20;99.90
52107;DHT22;38105;52.968;5.974;2023-07-31T03:23:45;16.50;99.90
52107;DHT22;38105;52.968;5.974;2023-07-31T03:26:11;16.50;99.90
52107;DHT22;38105;52.968;5.974;2023-07-31T03:28:36;16.30;99.90
52107;DHT22;38105;52.968;5.974;2023-07-31T03:31:02;16.10;99.90
52107;DHT22;38105;52.968;5.974;2023-07-31T03:33:27;16.40;99.90
52107;DHT22;38105;52.968;5.974;2023-07-31T03:35:53;16.30;99.90
52107;DHT22;38105;52.968;5.974;2023-07-31T03:38:19;16.40;99.90
52107;DHT22;38105;52.968;5.974;2023-07-31T03:40:44;16.30;99.90
52107;DHT22;38105;52.968;5.974;2023-07-31T03:43:10;16.40;99.90
52107;DHT22;38105;52.968;5.974;2023-07-31T03:45:36;16.60;99.90
52107;DHT22;38105;52.968;5.974;2023-07-31T03:48:01;16.00;99.90
52107;DHT22;38105;52.968;5.974;2023-07-31T03:50:27;16.50;99.90
52107;DHT22;38105;52.968;5.974;2023-07-31T03:52:53;16.50;99.90
52107;DHT22;38105;52.968;5.974;2023-07-31T03:55:18;16.20;99.90
52107;DHT22;38105;52.968;5.974;2023-07-31T03:57:44;16.40;99.90
52107;DHT22;38105;52.968;5.974;2023-07-31T04:00:09;16.10;99.90
52107;DHT22;38105;52.968;5.974;2023-07-31T04:02:35;16.40;99.90
52107;DHT22;38105;52.968;5.974;2023-07-31T04:05:01;16.10;99.90
52107;DHT22;38105;52.968;5.974;2023-07-31T04:07:26;16.20;99.90
52107;DHT22;38105;52.968;5.974;2023-07-31T04:09:52;16.00;99.90
52107;DHT22;38105;52.968;5.974;2023-07-31T04:12:17;16.20;99.90
52107;DHT22;38105;52.968;5.974;2023-07-31T04:14:43;16.40;99.90
52107;DHT22;38105;52.968;5.974;2023-07-31T04:17:09;16.00;99.90
52107;DHT22;38105;52.968;5.974;2023-07-31T04:19:34;16.60;99.90
52107;DHT22;38105;52.968;5.974;2023-07-31T04:22:00;16.70;99.90
52107;DHT22;38105;52.968;5.974;2023-07-31T04:24:25;16.30;99.90
52107;DHT22;38105;52.968;5.974;2023-07-31T04:26:51;16.20;99.90
52107;DHT22;38105;52.968;5.974;2023-07-31T04:29:17;16.60;99.90
52107;DHT22;38105;52.968;5.974;2023-07-31T04:31:42;16.70;99.90
52107;DHT22;38105;52.968;5.974;2023-07-31T04:34:08;16.30;99.90
52107;DHT22;38105;52.968;5.974;2023-07-31T04:36:34;16.60;99.90
52107;DHT22;38105;52.968;5.974;2023-07-31T04:38:59;16.30;99.90
52107;DHT22;38105;52.968;5.974;2023-07-31T04:41:25;16.30;99.90
52107;DHT22;38105;52.968;5.974;2023-07-31T04:43:51;16.80;99.90
52107;DHT22;38105;52.968;5.974;2023-07-31T04:46:16;16.10;99.90
52107;DHT22;38105;52.968;5.974;2023-07-31T04:48:42;16.70;99.90
52107;DHT22;38105;52.968;5.974;2023-07-31T04:51:07;16.40;99.90
52107;DHT22;38105;52.968;5.974;2023-07-31T04:53:34;16.20;99.90
52107;DHT22;38105;52.968;5.974;2023-07-31T04:56:00;16.40;99.90
52107;DHT22;38105;52.968;5.974;2023-07-31T04:58:25;16.80;99.90
52107;DHT22;38105;52.968;5.974;2023-07-31T05:00:51;16.40;99.90
52107;DHT22;38105;52.968;5.974;2023-07-31T05:03:16;16.90;99.90
52107;DHT22;38105;52.968;5.974;2023-07-31T05:05:42;16.40;99.90
52107;DHT22;38105;52.968;5.974;2023-07-31T05:08:08;16.60;99.90
52107;DHT22;38105;52.968;5.974;2023-07-31T05:10:33;16.80;99.90
52107;DHT22;38105;52.968;5.974;2023-07-31T05:12:59;16.50;99.90
52107;DHT22;38105;52.968;5.974;2023-07-31T05:15:24;16.70;99.90
52107;DHT22;38105;52.968;5.974;2023-07-31T05:17:50;17.10;99.90
52107;DHT22;38105;52.968;5.974;2023-07-31T05:20:15;16.50;99.90
52107;DHT22;38105;52.968;5.974;2023-07-31T05:22:41;16.60;99.90
52107;DHT22;38105;52.968;5.974;2023-07-31T05:25:06;16.60;99.90
52107;DHT22;38105;52.968;5.974;2023-07-31T05:27:32;16.80;99.90
52107;DHT22;38105;52.968;5.974;2023-07-31T05:29:58;17.10;99.90
52107;DHT22;38105;52.968;5.974;2023-07-31T05:32:23;16.80;99.90
52107;DHT22;38105;52.968;5.974;2023-07-31T05:34:52;17.00;99.90
52107;DHT22;38105;52.968;5.974;2023-07-31T05:37:18;17.00;99.90
52107;DHT22;38105;52.968;5.974;2023-07-31T05:39:43;16.70;99.90
52107;DHT22;38105;52.968;5.974;2023-07-31T05:42:09;16.70;99.90
52107;DHT22;38105;52.968;5.974;2023-07-31T05:44:35;17.20;99.90
52107;DHT22;38105;52.968;5.974;2023-07-31T05:47:00;17.40;99.90
52107;DHT22;38105;52.968;5.974;2023-07-31T05:49:26;17.10;99.90
52107;DHT22;38105;52.968;5.974;2023-07-31T05:51:51;17.60;99.90
52107;DHT22;38105;52.968;5.974;2023-07-31T05:54:17;17.30;99.90
52107;DHT22;38105;52.968;5.974;2023-07-31T05:56:42;17.20;99.90
52107;DHT22;38105;52.968;5.974;2023-07-31T05:59:08;17.30;99.90
52107;DHT22;38105;52.968;5.974;2023-07-31T06:01:34;17.20;99.90
52107;DHT22;38105;52.968;5.974;2023-07-31T06:04:00;17.70;99.90
52107;DHT22;38105;52.968;5.974;2023-07-31T06:06:25;17.50;99.90
52107;DHT22;38105;52.968;5.974;2023-07-31T06:08:51;17.40;99.90
52107;DHT22;38105;52.968;5.974;2023-07-31T06:11:16;17.60;99.90
52107;DHT22;38105;52.968;5.974;2023-07-31T06:13:42;17.70;99.90
52107;DHT22;38105;52.968;5.974;2023-07-31T06:16:09;17.30;99.90
52107;DHT22;38105;52.968;5.974;2023-07-31T06:18:35;17.50;99.90
52107;DHT22;38105;52.968;5.974;2023-07-31T06:21:01;17.60;99.90
52107;DHT22;38105;52.968;5.974;2023-07-31T06:23:26;17.50;99.90
52107;DHT22;38105;52.968;5.974;2023-07-31T06:25:52;17.40;99.90
52107;DHT22;38105;52.968;5.974;2023-07-31T06:28:17;17.40;99.90
52107;DHT22;38105;52.968;5.974;2023-07-31T06:30:43;17.70;99.90
52107;DHT22;38105;52.968;5.974;2023-07-31T06:33:08;17.80;99.90
52107;DHT22;38105;52.968;5.974;2023-07-31T06:35:34;17.90;99.90
52107;DHT22;38105;52.968;5.974;2023-07-31T06:38:00;17.50;99.90
52107;DHT22;38105;52.968;5.974;2023-07-31T06:40:26;17.40;99.90
52107;DHT22;38105;52.968;5.974;2023-07-31T06:42:52;18.00;99.90
52107;DHT22;38105;52.968;5.974;2023-07-31T06:45:18;17.40;99.90
52107;DHT22;38105;52.968;5.974;2023-07-31T06:47:43;17.60;99.90
52107;DHT22;38105;52.968;5.974;2023-07-31T06:50:09;17.60;99.90
52107;DHT22;38105;52.968;5.974;2023-07-31T06:52:34;17.40;99.90
52107;DHT22;38105;52.968;5.974;2023-07-31T06:55:09;17.40;99.90
52107;DHT22;38105;52.968;5.974;2023-07-31T06:57:42;17.40;99.90
52107;DHT22;38105;52.968;5.974;2023-07-31T07:00:07;17.40;99.90
52107;DHT22;38105;52.968;5.974;2023-07-31T07:02:33;17.30;99.90
52107;DHT22;38105;52.968;5.974;2023-07-31T07:04:59;17.70;99.90
52107;DHT22;38105;52.968;5.974;2023-07-31T07:07:24;17.90;99.90
52107;DHT22;38105;52.968;5.974;2023-07-31T07:09:50;17.90;99.90
52107;DHT22;38105;52.968;5.974;2023-07-31T07:12:16;17.80;99.90
52107;DHT22;38105;52.968;5.974;2023-07-31T07:14:41;17.20;99.90
52107;DHT22;38105;52.968;5.974;2023-07-31T07:17:07;17.80;99.90
52107;DHT22;38105;52.968;5.974;2023-07-31T07:19:32;17.50;99.90
52107;DHT22;38105;52.968;5.974;2023-07-31T07:21:58;17.40;99.90
52107;DHT22;38105;52.968;5.974;2023-07-31T07:24:26;17.30;99.90
52107;DHT22;38105;52.968;5.974;2023-07-31T07:26:52;17.10;99.90
52107;DHT22;38105;52.968;5.974;2023-07-31T07:29:17;17.10;99.90
52107;DHT22;38105;52.968;5.974;2023-07-31T07:31:43;17.30;99.90
52107;DHT22;38105;52.968;5.974;2023-07-31T07:34:08;17.80;99.90
52107;DHT22;38105;52.968;5.974;2023-07-31T07:36:34;17.80;99.90
52107;DHT22;38105;52.968;5.974;2023-07-31T07:38:59;17.60;99.90
52107;DHT22;38105;52.968;5.974;2023-07-31T07:41:25;17.10;99.90
52107;DHT22;38105;52.968;5.974;2023-07-31T07:43:50;17.30;99.90
52107;DHT22;38105;52.968;5.974;2023-07-31T07:46:17;17.10;99.90
52107;DHT22;38105;52.968;5.974;2023-07-31T07:48:42;17.20;99.90
52107;DHT22;38105;52.968;5.974;2023-07-31T07:51:08;17.50;99.90
52107;DHT22;38105;52.968;5.974;2023-07-31T07:53:33;17.50;99.90
52107;DHT22;38105;52.968;5.974;2023-07-31T07:55:59;17.40;99.90
52107;DHT22;38105;52.968;5.974;2023-07-31T07:58:24;17.60;99.90
52107;DHT22;38105;52.968;5.974;2023-07-31T08:00:50;17.40;99.90
52107;DHT22;38105;52.968;5.974;2023-07-31T08:03:16;17.30;99.90
52107;DHT22;38105;52.968;5.974;2023-07-31T08:05:42;17.80;99.90
52107;DHT22;38105;52.968;5.974;2023-07-31T08:08:08;17.60;99.90
52107;DHT22;38105;52.968;5.974;2023-07-31T08:10:33;17.70;99.90
52107;DHT22;38105;52.968;5.974;2023-07-31T08:12:59;17.40;99.90
52107;DHT22;38105;52.968;5.974;2023-07-31T08:15:24;17.80;99.90
52107;DHT22;38105;52.968;5.974;2023-07-31T08:17:50;17.20;99.90
52107;DHT22;38105;52.968;5.974;2023-07-31T08:20:15;17.70;99.90
52107;DHT22;38105;52.968;5.974;2023-07-31T08:22:41;17.50;99.90
52107;DHT22;38105;52.968;5.974;2023-07-31T08:25:06;17.50;99.90
52107;DHT22;38105;52.968;5.974;2023-07-31T08:27:32;17.50;99.90
52107;DHT22;38105;52.968;5.974;2023-07-31T08:29:58;17.90;99.90
52107;DHT22;38105;52.968;5.974;2023-07-31T08:32:23;17.90;99.90
52107;DHT22;38105;52.968;5.974;2023-07-31T08:34:49;17.80;99.90
52107;DHT22;38105;52.968;5.974;2023-07-31T08:37:14;18.00;99.90
52107;DHT22;38105;52.968;5.974;2023-07-31T08:39:40;17.60;99.90
52107;DHT22;38105;52.968;5.974;2023-07-31T08:42:07;17.70;99.90
52107;DHT22;38105;52.968;5.974;2023-07-31T08:44:33;17.60;99.90
52107;DHT22;38105;52.968;5.974;2023-07-31T08:46:59;18.10;99.90
52107;DHT22;38105;52.968;5.974;2023-07-31T08:49:25;17.80;99.90
52107;DHT22;38105;52.968;5.974;2023-07-31T08:51:51;17.60;99.90
52107;DHT22;38105;52.968;5.974;2023-07-31T08:54:17;18.20;99.90
52107;DHT22;38105;52.968;5.974;2023-07-31T08:56:43;18.20;99.90
52107;DHT22;38105;52.968;5.974;2023-07-31T08:59:09;18.30;99.90
52107;DHT22;38105;52.968;5.974;2023-07-31T09:01:36;17.80;99.90
52107;DHT22;38105;52.968;5.974;2023-07-31T09:04:03;18.30;99.90
52107;DHT22;38105;52.968;5.974;2023-07-31T09:06:29;18.10;99.90
52107;DHT22;38105;52.968;5.974;2023-07-31T09:08:55;17.60;99.90
52107;DHT22;38105;52.968;5.974;2023-07-31T09:11:21;17.70;99.90
52107;DHT22;38105;52.968;5.974;2023-07-31T09:13:46;17.90;99.90
52107;DHT22;38105;52.968;5.974;2023-07-31T09:16:13;18.30;99.90
52107;DHT22;38105;52.968;5.974;2023-07-31T09:18:52;18.40;99.90
52107;DHT22;38105;52.968;5.974;2023-07-31T09:21:18;18.00;99.90
52107;DHT22;38105;52.968;5.974;2023-07-31T09:23:44;18.10;99.90
52107;DHT22;38105;52.968;5.974;2023-07-31T09:26:10;18.80;99.90
52107;DHT22;38105;52.968;5.974;2023-07-31T09:28:36;19.00;99.90
52107;DHT22;38105;52.968;5.974;2023-07-31T09:31:02;18.90;99.90
52107;DHT22;38105;52.968;5.974;2023-07-31T09:33:27;18.30;99.90
52107;DHT22;38105;52.968;5.974;2023-07-31T09:35:53;18.40;99.90
52107;DHT22;38105;52.968;5.974;2023-07-31T09:38:18;19.00;99.90
52107;DHT22;38105;52.968;5.974;2023-07-31T09:40:45;19.30;99.90
52107;DHT22;38105;52.968;5.974;2023-07-31T09:43:11;18.70;99.90
52107;DHT22;38105;52.968;5.974;2023-07-31T09:45:38;19.40;99.90
52107;DHT22;38105;52.968;5.974;2023-07-31T09:48:08;19.50;99.90
52107;DHT22;38105;52.968;5.974;2023-07-31T09:50:36;19.00;99.90
52107;DHT22;38105;52.968;5.974;2023-07-31T09:53:02;19.50;99.90
52107;DHT22;38105;52.968;5.974;2023-07-31T09:55:27;19.10;99.90
52107;DHT22;38105;52.968;5.974;2023-07-31T09:57:54;19.20;99.90
52107;DHT22;38105;52.968;5.974;2023-07-31T10:00:20;19.60;99.90
52107;DHT22;38105;52.968;5.974;2023-07-31T10:02:48;19.40;99.90
52107;DHT22;38105;52.968;5.974;2023-07-31T10:05:15;19.30;99.90
52107;DHT22;38105;52.968;5.974;2023-07-31T10:07:55;19.30;99.90
52107;DHT22;38105;52.968;5.974;2023-07-31T10:10:21;19.20;99.90
52107;DHT22;38105;52.968;5.974;2023-07-31T10:12:50;19.30;99.90
52107;DHT22;38105;52.968;5.974;2023-07-31T10:15:17;19.10;99.90
52107;DHT22;38105;52.968;5.974;2023-07-31T10:17:42;19.40;99.90
52107;DHT22;38105;52.968;5.974;2023-07-31T10:20:08;19.10;99.90
52107;DHT22;38105;52.968;5.974;2023-07-31T10:22:35;19.70;99.90
52107;DHT22;38105;52.968;5.974;2023-07-31T10:25:01;19.20;99.90
52107;DHT22;38105;52.968;5.974;2023-07-31T10:27:27;19.50;99.90
52107;DHT22;38105;52.968;5.974;2023-07-31T10:29:54;19.40;99.90
52107;DHT22;38105;52.968;5.974;2023-07-31T10:32:20;19.40;99.90
52107;DHT22;38105;52.968;5.974;2023-07-31T10:34:46;19.40;99.90
52107;DHT22;38105;52.968;5.974;2023-07-31T10:37:27;19.40;99.90
52107;DHT22;38105;52.968;5.974;2023-07-31T10:39:57;19.50;99.90
52107;DHT22;38105;52.968;5.974;2023-07-31T10:42:27;19.70;99.90
52107;DHT22;38105;52.968;5.974;2023-07-31T10:44:55;19.20;99.90
52107;DHT22;38105;52.968;5.974;2023-07-31T10:47:21;19.30;99.90
52107;DHT22;38105;52.968;5.974;2023-07-31T10:49:47;19.20;99.90
52107;DHT22;38105;52.968;5.974;2023-07-31T10:52:12;18.80;99.90
52107;DHT22;38105;52.968;5.974;2023-07-31T10:54:38;19.20;99.90
52107;DHT22;38105;52.968;5.974;2023-07-31T10:57:13;18.80;99.90
52107;DHT22;38105;52.968;5.974;2023-07-31T10:59:43;18.80;99.90
52107;DHT22;38105;52.968;5.974;2023-07-31T11:02:09;18.90;99.90
52107;DHT22;38105;52.968;5.974;2023-07-31T11:05:05;19.40;99.90
52107;DHT22;38105;52.968;5.974;2023-07-31T11:07:46;19.50;99.90
52107;DHT22;38105;52.968;5.974;2023-07-31T11:10:11;20.00;99.90
52107;DHT22;38105;52.968;5.974;2023-07-31T11:12:41;20.10;99.90
52107;DHT22;38105;52.968;5.974;2023-07-31T11:15:06;20.30;99.90
52107;DHT22;38105;52.968;5.974;2023-07-31T11:17:32;20.40;99.90
52107;DHT22;38105;52.968;5.974;2023-07-31T11:20:01;20.20;99.90
52107;DHT22;38105;52.968;5.974;2023-07-31T11:22:26;20.80;99.90
52107;DHT22;38105;52.968;5.974;2023-07-31T11:24:52;20.40;99.90
52107;DHT22;38105;52.968;5.974;2023-07-31T11:27:17;20.50;99.90
52107;DHT22;38105;52.968;5.974;2023-07-31T11:29:43;20.40;99.90
52107;DHT22;38105;52.968;5.974;2023-07-31T11:32:15;20.40;99.90
52107;DHT22;38105;52.968;5.974;2023-07-31T11:34:50;20.10;99.90
52107;DHT22;38105;52.968;5.974;2023-07-31T11:37:16;20.20;99.90
52107;DHT22;38105;52.968;5.974;2023-07-31T11:39:41;20.20;99.90
52107;DHT22;38105;52.968;5.974;2023-07-31T11:42:07;19.80;99.90
52107;DHT22;38105;52.968;5.974;2023-07-31T11:44:40;20.00;99.90
52107;DHT22;38105;52.968;5.974;2023-07-31T11:47:06;20.10;99.90
52107;DHT22;38105;52.968;5.974;2023-07-31T11:49:32;20.00;99.90
52107;DHT22;38105;52.968;5.974;2023-07-31T11:51:57;20.10;99.90
52107;DHT22;38105;52.968;5.974;2023-07-31T11:54:23;20.10;99.90
52107;DHT22;38105;52.968;5.974;2023-07-31T11:56:48;19.90;99.90
52107;DHT22;38105;52.968;5.974;2023-07-31T11:59:15;20.10;99.90
52107;DHT22;38105;52.968;5.974;2023-07-31T12:01:41;20.00;99.90
52107;DHT22;38105;52.968;5.974;2023-07-31T12:04:06;19.70;99.90
52107;DHT22;38105;52.968;5.974;2023-07-31T12:06:33;19.80;99.90
52107;DHT22;38105;52.968;5.974;2023-07-31T12:09:02;19.80;99.90
52107;DHT22;38105;52.968;5.974;2023-07-31T12:11:28;19.70;99.90
52107;DHT22;38105;52.968;5.974;2023-07-31T12:13:54;19.20;99.90
52107;DHT22;38105;52.968;5.974;2023-07-31T12:16:19;19.40;99.90
52107;DHT22;38105;52.968;5.974;2023-07-31T12:18:45;19.80;99.90
52107;DHT22;38105;52.968;5.974;2023-07-31T12:21:10;19.90;99.90
52107;DHT22;38105;52.968;5.974;2023-07-31T12:23:37;20.00;99.90
52107;DHT22;38105;52.968;5.974;2023-07-31T12:28:28;20.20;99.90
52107;DHT22;38105;52.968;5.974;2023-07-31T12:30:56;20.00;99.90
52107;DHT22;38105;52.968;5.974;2023-07-31T12:33:22;20.20;99.90
52107;DHT22;38105;52.968;5.974;2023-07-31T12:35:48;20.30;99.90
52107;DHT22;38105;52.968;5.974;2023-07-31T12:38:13;20.00;99.90
52107;DHT22;38105;52.968;5.974;2023-07-31T12:40:39;20.10;99.90
52107;DHT22;38105;52.968;5.974;2023-07-31T12:43:05;20.20;99.90
52107;DHT22;38105;52.968;5.974;2023-07-31T12:45:31;20.10;99.90
52107;DHT22;38105;52.968;5.974;2023-07-31T12:47:57;20.10;99.90
52107;DHT22;38105;52.968;5.974;2023-07-31T12:50:23;20.00;99.90
52107;DHT22;38105;52.968;5.974;2023-07-31T12:52:49;20.30;99.90
52107;DHT22;38105;52.968;5.974;2023-07-31T12:55:14;20.10;99.90
52107;DHT22;38105;52.968;5.974;2023-07-31T12:57:40;20.20;99.90
52107;DHT22;38105;52.968;5.974;2023-07-31T13:00:07;20.40;99.90
52107;DHT22;38105;52.968;5.974;2023-07-31T13:02:33;20.70;99.90
52107;DHT22;38105;52.968;5.974;2023-07-31T13:04:58;20.50;99.90
52107;DHT22;38105;52.968;5.974;2023-07-31T13:07:24;20.80;99.90
52107;DHT22;38105;52.968;5.974;2023-07-31T13:09:50;20.80;99.90
52107;DHT22;38105;52.968;5.974;2023-07-31T13:12:16;20.50;99.90
52107;DHT22;38105;52.968;5.974;2023-07-31T13:14:41;20.70;99.90
52107;DHT22;38105;52.968;5.974;2023-07-31T13:17:07;20.40;99.90
52107;DHT22;38105;52.968;5.974;2023-07-31T13:19:32;20.50;99.90
52107;DHT22;38105;52.968;5.974;2023-07-31T13:21:58;20.20;99.90
52107;DHT22;38105;52.968;5.974;2023-07-31T13:24:23;20.10;99.90
52107;DHT22;38105;52.968;5.974;2023-07-31T13:26:49;20.40;99.90
52107;DHT22;38105;52.968;5.974;2023-07-31T13:29:14;20.20;99.90
52107;DHT22;38105;52.968;5.974;2023-07-31T13:31:40;20.30;99.90
52107;DHT22;38105;52.968;5.974;2023-07-31T13:34:06;20.30;99.90
52107;DHT22;38105;52.968;5.974;2023-07-31T13:36:31;20.30;99.90
52107;DHT22;38105;52.968;5.974;2023-07-31T13:38:59;20.30;99.90
52107;DHT22;38105;52.968;5.974;2023-07-31T13:41:25;20.50;99.90
52107;DHT22;38105;52.968;5.974;2023-07-31T13:43:50;20.30;99.90
52107;DHT22;38105;52.968;5.974;2023-07-31T13:46:16;20.30;99.90
52107;DHT22;38105;52.968;5.974;2023-07-31T13:48:41;20.10;99.90
52107;DHT22;38105;52.968;5.974;2023-07-31T13:51:07;20.40;99.90
52107;DHT22;38105;52.968;5.974;2023-07-31T13:53:32;20.30;99.90
52107;DHT22;38105;52.968;5.974;2023-07-31T13:55:58;20.20;99.90
52107;DHT22;38105;52.968;5.974;2023-07-31T13:58:23;20.40;99.90
52107;DHT22;38105;52.968;5.974;2023-07-31T14:00:49;20.30;99.90
52107;DHT22;38105;52.968;5.974;2023-07-31T14:03:14;20.40;99.90
52107;DHT22;38105;52.968;5.974;2023-07-31T14:05:40;20.40;99.90
52107;DHT22;38105;52.968;5.974;2023-07-31T14:08:05;20.70;99.90
52107;DHT22;38105;52.968;5.974;2023-07-31T14:10:31;20.50;99.90
52107;DHT22;38105;52.968;5.974;2023-07-31T14:12:56;20.50;99.90
52107;DHT22;38105;52.968;5.974;2023-07-31T14:15:22;20.60;99.90
52107;DHT22;38105;52.968;5.974;2023-07-31T14:17:47;20.30;99.90
52107;DHT22;38105;52.968;5.974;2023-07-31T14:20:13;20.40;99.90
52107;DHT22;38105;52.968;5.974;2023-07-31T14:22:38;20.50;99.90
52107;DHT22;38105;52.968;5.974;2023-07-31T14:25:04;20.50;99.90
52107;DHT22;38105;52.968;5.974;2023-07-31T14:27:30;20.60;99.90
52107;DHT22;38105;52.968;5.974;2023-07-31T14:29:55;20.60;99.90
52107;DHT22;38105;52.968;5.974;2023-07-31T14:32:22;20.40;99.90
52107;DHT22;38105;52.968;5.974;2023-07-31T14:34:48;20.50;99.90
52107;DHT22;38105;52.968;5.974;2023-07-31T14:37:14;20.40;99.90
52107;DHT22;38105;52.968;5.974;2023-07-31T14:39:39;20.30;99.90
52107;DHT22;38105;52.968;5.974;2023-07-31T14:42:05;20.40;99.90
52107;DHT22;38105;52.968;5.974;2023-07-31T14:44:30;20.30;99.90
52107;DHT22;38105;52.968;5.974;2023-07-31T14:46:56;20.10;99.90
52107;DHT22;38105;52.968;5.974;2023-07-31T14:49:22;20.30;99.90
52107;DHT22;38105;52.968;5.974;2023-07-31T14:51:47;20.20;99.90
52107;DHT22;38105;52.968;5.974;2023-07-31T14:54:13;20.10;99.90
52107;DHT22;38105;52.968;5.974;2023-07-31T14:56:38;20.10;99.90
52107;DHT22;38105;52.968;5.974;2023-07-31T14:59:04;19.80;99.90
52107;DHT22;38105;52.968;5.974;2023-07-31T15:01:29;19.80;99.90
52107;DHT22;38105;52.968;5.974;2023-07-31T15:03:55;19.80;99.90
52107;DHT22;38105;52.968;5.974;2023-07-31T15:06:20;19.80;99.90
52107;DHT22;38105;52.968;5.974;2023-07-31T15:08:46;19.70;99.90
52107;DHT22;38105;52.968;5.974;2023-07-31T15:11:11;20.00;99.90
52107;DHT22;38105;52.968;5.974;2023-07-31T15:13:37;19.80;99.90
52107;DHT22;38105;52.968;5.974;2023-07-31T15:16:02;20.00;99.90
52107;DHT22;38105;52.968;5.974;2023-07-31T15:18:28;19.90;99.90
52107;DHT22;38105;52.968;5.974;2023-07-31T15:20:54;19.90;99.90
52107;DHT22;38105;52.968;5.974;2023-07-31T15:23:19;19.80;99.90
52107;DHT22;38105;52.968;5.974;2023-07-31T15:25:45;19.90;99.90
52107;DHT22;38105;52.968;5.974;2023-07-31T15:28:10;20.00;99.90